sensor_id;sensor_type;location;lat;lon;timestamp;P1;durP1;ratioP1;P2;durP2;ratioP2
7231;SDS011;3657;49.630;11.018;2023-05-07T00:02:12;5.10;;;5.00;;
7231;SDS011;3657;49.630;11.018;2023-05-07T00:04:40;5.40;;;5.30;;
7231;SDS011;3657;49.630;11.018;2023-05-07T00:07:07;5.57;;;5.43;;
7231;SDS011;3657;49.630;11.018;2023-05-07T00:09:34;5.90;;;5.60;;
7231;SDS011;3657;49.630;11.018;2023-05-07T00:12:00;5.67;;;5.47;;
7231;SDS011;3657;49.630;11.018;2023-05-07T00:14:27;6.47;;;6.27;;
7231;SDS011;3657;49.630;11.018;2023-05-07T00:16:55;5.60;;;5.47;;
7231;SDS011;3657;49.630;11.018;2023-05-07T00:19:21;6.17;;;5.97;;
7231;SDS011;3657;49.630;11.018;2023-05-07T00:21:49;6.60;;;6.30;;
7231;SDS011;3657;49.630;11.018;2023-05-07T00:24:18;6.07;;;5.87;;
7231;SDS011;3657;49.630;11.018;2023-05-07T00:26:45;6.03;;;5.93;;
7231;SDS011;3657;49.630;11.018;2023-05-07T00:29:12;6.13;;;5.83;;
7231;SDS011;3657;49.630;11.018;2023-05-07T00:31:38;6.00;;;5.70;;
7231;SDS011;3657;49.630;11.018;2023-05-07T00:34:05;5.13;;;5.00;;
7231;SDS011;3657;49.630;11.018;2023-05-07T00:36:32;6.30;;;6.00;;
7231;SDS011;3657;49.630;11.018;2023-05-07T00:39:00;5.87;;;5.67;;
7231;SDS011;3657;49.630;11.018;2023-05-07T00:41:28;6.67;;;6.47;;
7231;SDS011;3657;49.630;11.018;2023-05-07T00:43:55;5.60;;;5.40;;
7231;SDS011;3657;49.630;11.018;2023-05-07T00:46:22;5.13;;;5.03;;
7231;SDS011;3657;49.630;11.018;2023-05-07T00:48:50;6.07;;;5.97;;
7231;SDS011;3657;49.630;11.018;2023-05-07T00:51:17;5.37;;;5.27;;
7231;SDS011;3657;49.630;11.018;2023-05-07T00:53:44;4.77;;;4.67;;
7231;SDS011;3657;49.630;11.018;2023-05-07T00:56:12;5.03;;;4.93;;
7231;SDS011;3657;49.630;11.018;2023-05-07T00:58:40;5.60;;;5.50;;
7231;SDS011;3657;49.630;11.018;2023-05-07T01:01:06;5.83;;;5.63;;
7231;SDS011;3657;49.630;11.018;2023-05-07T01:03:33;5.43;;;5.33;;
7231;SDS011;3657;49.630;11.018;2023-05-07T01:06:00;5.73;;;5.53;;
7231;SDS011;3657;49.630;11.018;2023-05-07T01:08:29;5.60;;;5.30;;
7231;SDS011;3657;49.630;11.018;2023-05-07T01:10:56;6.07;;;5.87;;
7231;SDS011;3657;49.630;11.018;2023-05-07T01:13:25;6.97;;;5.73;;
7231;SDS011;3657;49.630;11.018;2023-05-07T01:15:52;5.67;;;5.57;;
7231;SDS011;3657;49.630;11.018;2023-05-07T01:18:19;5.50;;;5.40;;
7231;SDS011;3657;49.630;11.018;2023-05-07T01:20:46;5.70;;;5.60;;
7231;SDS011;3657;49.630;11.018;2023-05-07T01:23:15;5.93;;;5.80;;
7231;SDS011;3657;49.630;11.018;2023-05-07T01:25:42;6.47;;;6.17;;
7231;SDS011;3657;49.630;11.018;2023-05-07T01:28:08;5.60;;;5.50;;
7231;SDS011;3657;49.630;11.018;2023-05-07T01:30:35;6.10;;;5.90;;
7231;SDS011;3657;49.630;11.018;2023-05-07T01:33:04;5.23;;;5.13;;
7231;SDS011;3657;49.630;11.018;2023-05-07T01:35:37;6.40;;;6.20;;
7231;SDS011;3657;49.630;11.018;2023-05-07T01:38:06;6.03;;;5.83;;
7231;SDS011;3657;49.630;11.018;2023-05-07T01:40:35;5.33;;;5.23;;
7231;SDS011;3657;49.630;11.018;2023-05-07T01:43:02;6.17;;;5.97;;
7231;SDS011;3657;49.630;11.018;2023-05-07T01:45:29;5.80;;;5.60;;
7231;SDS011;3657;49.630;11.018;2023-05-07T01:47:57;5.37;;;5.27;;
7231;SDS011;3657;49.630;11.018;2023-05-07T01:50:25;6.27;;;6.10;;
7231;SDS011;3657;49.630;11.018;2023-05-07T01:52:52;5.20;;;5.10;;
7231;SDS011;3657;49.630;11.018;2023-05-07T01:55:18;5.57;;;5.47;;
7231;SDS011;3657;49.630;11.018;2023-05-07T01:57:46;5.40;;;5.30;;
7231;SDS011;3657;49.630;11.018;2023-05-07T02:00:13;6.10;;;6.00;;
7231;SDS011;3657;49.630;11.018;2023-05-07T02:02:40;6.33;;;6.23;;
7231;SDS011;3657;49.630;11.018;2023-05-07T02:05:07;5.07;;;4.97;;
7231;SDS011;3657;49.630;11.018;2023-05-07T02:07:35;6.50;;;6.07;;
7231;SDS011;3657;49.630;11.018;2023-05-07T02:10:01;5.93;;;5.83;;
7231;SDS011;3657;49.630;11.018;2023-05-07T02:12:29;6.93;;;6.73;;
7231;SDS011;3657;49.630;11.018;2023-05-07T02:14:57;6.50;;;6.30;;
7231;SDS011;3657;49.630;11.018;2023-05-07T02:17:23;6.17;;;6.07;;
7231;SDS011;3657;49.630;11.018;2023-05-07T02:19:50;6.17;;;5.97;;
7231;SDS011;3657;49.630;11.018;2023-05-07T02:22:17;5.73;;;5.63;;
7231;SDS011;3657;49.630;11.018;2023-05-07T02:24:44;6.93;;;6.73;;
7231;SDS011;3657;49.630;11.018;2023-05-07T02:27:10;5.33;;;5.23;;
7231;SDS011;3657;49.630;11.018;2023-05-07T02:29:37;6.47;;;6.37;;
7231;SDS011;3657;49.630;11.018;2023-05-07T02:32:05;5.73;;;5.63;;
7231;SDS011;3657;49.630;11.018;2023-05-07T02:34:32;6.20;;;6.00;;
7231;SDS011;3657;49.630;11.018;2023-05-07T02:36:59;6.00;;;5.83;;
7231;SDS011;3657;49.630;11.018;2023-05-07T02:39:25;5.93;;;5.70;;
7231;SDS011;3657;49.630;11.018;2023-05-07T02:41:52;6.60;;;6.40;;
7231;SDS011;3657;49.630;11.018;2023-05-07T02:44:19;7.03;;;6.83;;
7231;SDS011;3657;49.630;11.018;2023-05-07T02:46:45;6.03;;;5.83;;
7231;SDS011;3657;49.630;11.018;2023-05-07T02:49:13;6.37;;;6.27;;
7231;SDS011;3657;49.630;11.018;2023-05-07T02:51:40;6.27;;;6.17;;
7231;SDS011;3657;49.630;11.018;2023-05-07T02:54:07;6.93;;;6.73;;
7231;SDS011;3657;49.630;11.018;2023-05-07T02:56:33;6.67;;;6.47;;
7231;SDS011;3657;49.630;11.018;2023-05-07T02:59:00;6.73;;;6.53;;
7231;SDS011;3657;49.630;11.018;2023-05-07T03:01:27;7.13;;;6.93;;
7231;SDS011;3657;49.630;11.018;2023-05-07T03:03:53;6.77;;;6.47;;
7231;SDS011;3657;49.630;11.018;2023-05-07T03:06:21;6.80;;;6.60;;
7231;SDS011;3657;49.630;11.018;2023-05-07T03:08:48;6.47;;;6.27;;
7231;SDS011;3657;49.630;11.018;2023-05-07T03:11:15;6.47;;;6.27;;
7231;SDS011;3657;49.630;11.018;2023-05-07T03:13:41;6.50;;;6.30;;
7231;SDS011;3657;49.630;11.018;2023-05-07T03:16:08;7.50;;;7.30;;
7231;SDS011;3657;49.630;11.018;2023-05-07T03:18:35;7.33;;;7.00;;
7231;SDS011;3657;49.630;11.018;2023-05-07T03:21:02;7.30;;;7.10;;
7231;SDS011;3657;49.630;11.018;2023-05-07T03:23:30;7.50;;;7.20;;
7231;SDS011;3657;49.630;11.018;2023-05-07T03:25:56;7.23;;;7.03;;
7231;SDS011;3657;49.630;11.018;2023-05-07T03:28:23;8.33;;;8.03;;
7231;SDS011;3657;49.630;11.018;2023-05-07T03:30:49;8.03;;;7.60;;
7231;SDS011;3657;49.630;11.018;2023-05-07T03:33:16;7.70;;;7.43;;
7231;SDS011;3657;49.630;11.018;2023-05-07T03:35:43;7.60;;;7.30;;
7231;SDS011;3657;49.630;11.018;2023-05-07T03:38:10;7.73;;;7.53;;
7231;SDS011;3657;49.630;11.018;2023-05-07T03:40:38;7.70;;;7.40;;
7231;SDS011;3657;49.630;11.018;2023-05-07T03:43:05;8.30;;;8.10;;
7231;SDS011;3657;49.630;11.018;2023-05-07T03:45:31;8.27;;;8.07;;
7231;SDS011;3657;49.630;11.018;2023-05-07T03:47:58;7.80;;;7.50;;
7231;SDS011;3657;49.630;11.018;2023-05-07T03:50:25;7.90;;;7.70;;
7231;SDS011;3657;49.630;11.018;2023-05-07T03:52:51;8.07;;;7.87;;
7231;SDS011;3657;49.630;11.018;2023-05-07T03:55:18;7.53;;;7.33;;
7231;SDS011;3657;49.630;11.018;2023-05-07T03:57:46;8.10;;;7.90;;
7231;SDS011;3657;49.630;11.018;2023-05-07T04:00:13;7.67;;;7.47;;
7231;SDS011;3657;49.630;11.018;2023-05-07T04:02:40;8.10;;;7.83;;
7231;SDS011;3657;49.630;11.018;2023-05-07T04:05:07;8.17;;;7.87;;
7231;SDS011;3657;49.630;11.018;2023-05-07T04:07:34;7.83;;;7.63;;
7231;SDS011;3657;49.630;11.018;2023-05-07T04:10:01;8.40;;;8.10;;
7231;SDS011;3657;49.630;11.018;2023-05-07T04:12:28;7.43;;;7.23;;
7231;SDS011;3657;49.630;11.018;2023-05-07T04:14:56;7.97;;;7.67;;
7231;SDS011;3657;49.630;11.018;2023-05-07T04:17:22;7.13;;;6.93;;
7231;SDS011;3657;49.630;11.018;2023-05-07T04:19:49;7.17;;;6.97;;
7231;SDS011;3657;49.630;11.018;2023-05-07T04:22:16;6.97;;;6.77;;
7231;SDS011;3657;49.630;11.018;2023-05-07T04:24:42;7.60;;;7.40;;
7231;SDS011;3657;49.630;11.018;2023-05-07T04:27:09;7.90;;;7.50;;
7231;SDS011;3657;49.630;11.018;2023-05-07T04:29:35;7.10;;;6.90;;
7231;SDS011;3657;49.630;11.018;2023-05-07T04:32:05;7.23;;;7.00;;
7231;SDS011;3657;49.630;11.018;2023-05-07T04:34:31;7.80;;;7.60;;
7231;SDS011;3657;49.630;11.018;2023-05-07T04:36:58;7.57;;;7.37;;
7231;SDS011;3657;49.630;11.018;2023-05-07T04:39:25;8.33;;;7.80;;
7231;SDS011;3657;49.630;11.018;2023-05-07T04:41:52;7.73;;;7.53;;
7231;SDS011;3657;49.630;11.018;2023-05-07T04:44:18;6.70;;;6.50;;
7231;SDS011;3657;49.630;11.018;2023-05-07T04:46:45;7.30;;;7.10;;
7231;SDS011;3657;49.630;11.018;2023-05-07T04:49:13;7.87;;;7.67;;
7231;SDS011;3657;49.630;11.018;2023-05-07T04:51:40;7.90;;;7.70;;
7231;SDS011;3657;49.630;11.018;2023-05-07T04:54:08;8.73;;;8.50;;
7231;SDS011;3657;49.630;11.018;2023-05-07T04:56:35;8.70;;;8.40;;
7231;SDS011;3657;49.630;11.018;2023-05-07T04:59:01;7.87;;;7.67;;
7231;SDS011;3657;49.630;11.018;2023-05-07T05:01:28;8.10;;;7.80;;
7231;SDS011;3657;49.630;11.018;2023-05-07T05:03:55;8.57;;;8.37;;
7231;SDS011;3657;49.630;11.018;2023-05-07T05:06:23;8.83;;;8.50;;
7231;SDS011;3657;49.630;11.018;2023-05-07T05:08:49;9.50;;;9.00;;
7231;SDS011;3657;49.630;11.018;2023-05-07T05:11:16;9.20;;;8.90;;
7231;SDS011;3657;49.630;11.018;2023-05-07T05:13:43;9.60;;;9.30;;
7231;SDS011;3657;49.630;11.018;2023-05-07T05:16:09;9.97;;;9.57;;
7231;SDS011;3657;49.630;11.018;2023-05-07T05:18:36;9.67;;;9.23;;
7231;SDS011;3657;49.630;11.018;2023-05-07T05:21:03;9.53;;;9.23;;
7231;SDS011;3657;49.630;11.018;2023-05-07T05:23:31;9.27;;;8.87;;
7231;SDS011;3657;49.630;11.018;2023-05-07T05:25:58;9.00;;;8.80;;
7231;SDS011;3657;49.630;11.018;2023-05-07T05:28:25;9.83;;;9.53;;
7231;SDS011;3657;49.630;11.018;2023-05-07T05:30:52;9.70;;;9.27;;
7231;SDS011;3657;49.630;11.018;2023-05-07T05:33:19;9.23;;;8.83;;
7231;SDS011;3657;49.630;11.018;2023-05-07T05:35:45;9.03;;;8.73;;
7231;SDS011;3657;49.630;11.018;2023-05-07T05:38:12;9.83;;;9.53;;
7231;SDS011;3657;49.630;11.018;2023-05-07T05:40:40;8.97;;;8.73;;
7231;SDS011;3657;49.630;11.018;2023-05-07T05:43:07;9.87;;;9.57;;
7231;SDS011;3657;49.630;11.018;2023-05-07T05:45:34;9.73;;;9.43;;
7231;SDS011;3657;49.630;11.018;2023-05-07T05:48:00;9.63;;;9.33;;
7231;SDS011;3657;49.630;11.018;2023-05-07T05:50:27;10.00;;;9.70;;
7231;SDS011;3657;49.630;11.018;2023-05-07T05:52:54;10.23;;;9.93;;
7231;SDS011;3657;49.630;11.018;2023-05-07T05:55:21;10.73;;;10.40;;
7231;SDS011;3657;49.630;11.018;2023-05-07T05:57:49;10.13;;;9.83;;
7231;SDS011;3657;49.630;11.018;2023-05-07T06:00:16;10.10;;;9.80;;
7231;SDS011;3657;49.630;11.018;2023-05-07T06:02:43;10.07;;;9.57;;
7231;SDS011;3657;49.630;11.018;2023-05-07T06:05:10;13.03;;;12.27;;
7231;SDS011;3657;49.630;11.018;2023-05-07T06:07:37;12.90;;;12.40;;
7231;SDS011;3657;49.630;11.018;2023-05-07T06:10:03;13.77;;;13.17;;
7231;SDS011;3657;49.630;11.018;2023-05-07T06:12:31;10.73;;;10.33;;
7231;SDS011;3657;49.630;11.018;2023-05-07T06:14:59;12.00;;;11.60;;
7231;SDS011;3657;49.630;11.018;2023-05-07T06:17:26;11.10;;;10.63;;
7231;SDS011;3657;49.630;11.018;2023-05-07T06:19:53;10.60;;;10.20;;
7231;SDS011;3657;49.630;11.018;2023-05-07T06:22:20;12.90;;;12.50;;
7231;SDS011;3657;49.630;11.018;2023-05-07T06:24:46;11.83;;;11.43;;
7231;SDS011;3657;49.630;11.018;2023-05-07T06:27:13;15.90;;;15.20;;
7231;SDS011;3657;49.630;11.018;2023-05-07T06:29:40;13.03;;;12.60;;
7231;SDS011;3657;49.630;11.018;2023-05-07T06:32:09;12.83;;;12.43;;
7231;SDS011;3657;49.630;11.018;2023-05-07T06:34:36;13.23;;;12.73;;
7231;SDS011;3657;49.630;11.018;2023-05-07T06:37:03;12.27;;;11.70;;
7231;SDS011;3657;49.630;11.018;2023-05-07T06:39:30;12.33;;;11.83;;
7231;SDS011;3657;49.630;11.018;2023-05-07T06:41:57;12.50;;;12.00;;
7231;SDS011;3657;49.630;11.018;2023-05-07T06:44:24;13.03;;;12.53;;
7231;SDS011;3657;49.630;11.018;2023-05-07T06:46:51;12.70;;;12.20;;
7231;SDS011;3657;49.630;11.018;2023-05-07T06:49:19;12.17;;;11.67;;
7231;SDS011;3657;49.630;11.018;2023-05-07T06:51:45;11.83;;;11.43;;
7231;SDS011;3657;49.630;11.018;2023-05-07T06:54:12;12.07;;;11.67;;
7231;SDS011;3657;49.630;11.018;2023-05-07T06:56:39;11.83;;;11.43;;
7231;SDS011;3657;49.630;11.018;2023-05-07T06:59:06;12.93;;;12.43;;
7231;SDS011;3657;49.630;11.018;2023-05-07T07:01:32;12.30;;;12.00;;
7231;SDS011;3657;49.630;11.018;2023-05-07T07:03:59;12.07;;;11.67;;
7231;SDS011;3657;49.630;11.018;2023-05-07T07:06:27;14.30;;;13.70;;
7231;SDS011;3657;49.630;11.018;2023-05-07T07:08:56;10.40;;;10.10;;
7231;SDS011;3657;49.630;11.018;2023-05-07T07:11:23;12.27;;;11.77;;
7231;SDS011;3657;49.630;11.018;2023-05-07T07:13:50;13.40;;;12.90;;
7231;SDS011;3657;49.630;11.018;2023-05-07T07:16:16;11.87;;;11.47;;
7231;SDS011;3657;49.630;11.018;2023-05-07T07:18:43;11.53;;;11.13;;
7231;SDS011;3657;49.630;11.018;2023-05-07T07:21:10;12.53;;;12.03;;
7231;SDS011;3657;49.630;11.018;2023-05-07T07:23:38;14.63;;;13.97;;
7231;SDS011;3657;49.630;11.018;2023-05-07T07:26:05;15.20;;;14.50;;
7231;SDS011;3657;49.630;11.018;2023-05-07T07:28:32;12.67;;;12.27;;
7231;SDS011;3657;49.630;11.018;2023-05-07T07:30:58;11.97;;;11.57;;
7231;SDS011;3657;49.630;11.018;2023-05-07T07:33:25;11.83;;;11.43;;
7231;SDS011;3657;49.630;11.018;2023-05-07T07:35:52;15.43;;;14.53;;
7231;SDS011;3657;49.630;11.018;2023-05-07T07:38:18;13.07;;;12.50;;
7231;SDS011;3657;49.630;11.018;2023-05-07T07:40:48;11.17;;;10.83;;
7231;SDS011;3657;49.630;11.018;2023-05-07T07:43:15;12.57;;;12.07;;
7231;SDS011;3657;49.630;11.018;2023-05-07T07:45:41;10.63;;;10.33;;
7231;SDS011;3657;49.630;11.018;2023-05-07T07:48:08;13.90;;;13.30;;
7231;SDS011;3657;49.630;11.018;2023-05-07T07:50:35;11.70;;;11.37;;
7231;SDS011;3657;49.630;11.018;2023-05-07T07:53:02;13.23;;;12.63;;
7231;SDS011;3657;49.630;11.018;2023-05-07T07:55:28;11.63;;;11.23;;
7231;SDS011;3657;49.630;11.018;2023-05-07T07:57:58;11.80;;;11.40;;
7231;SDS011;3657;49.630;11.018;2023-05-07T08:00:24;12.47;;;11.90;;
7231;SDS011;3657;49.630;11.018;2023-05-07T08:02:51;12.43;;;11.83;;
7231;SDS011;3657;49.630;11.018;2023-05-07T08:05:18;10.77;;;10.47;;
7231;SDS011;3657;49.630;11.018;2023-05-07T08:07:45;11.93;;;11.40;;
7231;SDS011;3657;49.630;11.018;2023-05-07T08:10:16;13.47;;;12.97;;
7231;SDS011;3657;49.630;11.018;2023-05-07T08:12:46;12.33;;;11.73;;
7231;SDS011;3657;49.630;11.018;2023-05-07T08:15:14;9.67;;;9.37;;
7231;SDS011;3657;49.630;11.018;2023-05-07T08:17:41;12.37;;;11.87;;
7231;SDS011;3657;49.630;11.018;2023-05-07T08:20:08;12.70;;;12.30;;
7231;SDS011;3657;49.630;11.018;2023-05-07T08:22:36;11.23;;;10.77;;
7231;SDS011;3657;49.630;11.018;2023-05-07T08:25:03;12.87;;;12.30;;
7231;SDS011;3657;49.630;11.018;2023-05-07T08:27:30;13.90;;;13.23;;
7231;SDS011;3657;49.630;11.018;2023-05-07T08:29:56;12.03;;;11.43;;
7231;SDS011;3657;49.630;11.018;2023-05-07T08:32:25;11.83;;;11.43;;
7231;SDS011;3657;49.630;11.018;2023-05-07T08:34:52;13.40;;;12.90;;
7231;SDS011;3657;49.630;11.018;2023-05-07T08:37:19;12.67;;;12.27;;
7231;SDS011;3657;49.630;11.018;2023-05-07T08:39:46;11.73;;;11.33;;
7231;SDS011;3657;49.630;11.018;2023-05-07T08:42:13;11.00;;;10.57;;
7231;SDS011;3657;49.630;11.018;2023-05-07T08:44:43;10.93;;;10.60;;
7231;SDS011;3657;49.630;11.018;2023-05-07T08:47:11;10.43;;;10.13;;
7231;SDS011;3657;49.630;11.018;2023-05-07T08:49:40;11.57;;;11.17;;
7231;SDS011;3657;49.630;11.018;2023-05-07T08:52:06;10.77;;;10.37;;
7231;SDS011;3657;49.630;11.018;2023-05-07T08:54:33;11.50;;;11.03;;
7231;SDS011;3657;49.630;11.018;2023-05-07T08:57:02;10.13;;;9.73;;
7231;SDS011;3657;49.630;11.018;2023-05-07T08:59:28;9.37;;;9.07;;
7231;SDS011;3657;49.630;11.018;2023-05-07T09:01:56;10.53;;;10.13;;
7231;SDS011;3657;49.630;11.018;2023-05-07T09:04:22;10.90;;;10.40;;
7231;SDS011;3657;49.630;11.018;2023-05-07T09:06:50;10.63;;;10.33;;
7231;SDS011;3657;49.630;11.018;2023-05-07T09:09:17;11.33;;;11.03;;
7231;SDS011;3657;49.630;11.018;2023-05-07T09:11:44;9.80;;;9.43;;
7231;SDS011;3657;49.630;11.018;2023-05-07T09:14:11;10.67;;;10.17;;
7231;SDS011;3657;49.630;11.018;2023-05-07T09:16:37;10.03;;;9.73;;
7231;SDS011;3657;49.630;11.018;2023-05-07T09:19:04;10.47;;;10.17;;
7231;SDS011;3657;49.630;11.018;2023-05-07T09:21:31;10.93;;;10.43;;
7231;SDS011;3657;49.630;11.018;2023-05-07T09:23:59;9.60;;;9.30;;
7231;SDS011;3657;49.630;11.018;2023-05-07T09:26:26;9.33;;;8.93;;
7231;SDS011;3657;49.630;11.018;2023-05-07T09:28:53;10.90;;;10.60;;
7231;SDS011;3657;49.630;11.018;2023-05-07T09:31:20;9.83;;;9.43;;
7231;SDS011;3657;49.630;11.018;2023-05-07T09:33:48;10.07;;;9.67;;
7231;SDS011;3657;49.630;11.018;2023-05-07T09:36:15;10.60;;;10.20;;
7231;SDS011;3657;49.630;11.018;2023-05-07T09:38:42;9.80;;;9.50;;
7231;SDS011;3657;49.630;11.018;2023-05-07T09:41:10;12.00;;;11.60;;
7231;SDS011;3657;49.630;11.018;2023-05-07T09:43:38;11.77;;;11.33;;
7231;SDS011;3657;49.630;11.018;2023-05-07T09:46:06;10.53;;;10.23;;
7231;SDS011;3657;49.630;11.018;2023-05-07T09:48:37;10.43;;;9.97;;
7231;SDS011;3657;49.630;11.018;2023-05-07T09:51:06;9.20;;;8.70;;
7231;SDS011;3657;49.630;11.018;2023-05-07T09:53:41;9.87;;;9.57;;
7231;SDS011;3657;49.630;11.018;2023-05-07T09:56:12;9.20;;;8.90;;
7231;SDS011;3657;49.630;11.018;2023-05-07T09:58:40;9.10;;;8.80;;
7231;SDS011;3657;49.630;11.018;2023-05-07T10:01:08;9.77;;;9.40;;
7231;SDS011;3657;49.630;11.018;2023-05-07T10:03:36;10.67;;;10.27;;
7231;SDS011;3657;49.630;11.018;2023-05-07T10:06:06;8.60;;;8.40;;
7231;SDS011;3657;49.630;11.018;2023-05-07T10:08:34;9.03;;;8.83;;
7231;SDS011;3657;49.630;11.018;2023-05-07T10:11:02;9.60;;;9.13;;
7231;SDS011;3657;49.630;11.018;2023-05-07T10:13:31;8.73;;;8.40;;
7231;SDS011;3657;49.630;11.018;2023-05-07T10:16:00;9.33;;;8.93;;
7231;SDS011;3657;49.630;11.018;2023-05-07T10:18:29;9.40;;;9.10;;
7231;SDS011;3657;49.630;11.018;2023-05-07T10:20:59;9.47;;;8.83;;
7231;SDS011;3657;49.630;11.018;2023-05-07T10:23:30;9.17;;;8.87;;
7231;SDS011;3657;49.630;11.018;2023-05-07T10:25:58;9.27;;;8.83;;
7231;SDS011;3657;49.630;11.018;2023-05-07T10:28:27;8.47;;;8.17;;
7231;SDS011;3657;49.630;11.018;2023-05-07T10:30:58;8.87;;;8.57;;
7231;SDS011;3657;49.630;11.018;2023-05-07T10:33:33;7.80;;;7.60;;
7231;SDS011;3657;49.630;11.018;2023-05-07T10:36:02;9.63;;;9.23;;
7231;SDS011;3657;49.630;11.018;2023-05-07T10:38:30;8.57;;;8.37;;
7231;SDS011;3657;49.630;11.018;2023-05-07T10:40:57;8.60;;;8.20;;
7231;SDS011;3657;49.630;11.018;2023-05-07T10:43:24;9.27;;;8.93;;
7231;SDS011;3657;49.630;11.018;2023-05-07T10:46:11;7.93;;;7.63;;
7231;SDS011;3657;49.630;11.018;2023-05-07T10:51:41;7.20;;;7.00;;
7231;SDS011;3657;49.630;11.018;2023-05-07T10:54:20;8.67;;;8.47;;
7231;SDS011;3657;49.630;11.018;2023-05-07T10:56:49;8.40;;;8.00;;
7231;SDS011;3657;49.630;11.018;2023-05-07T10:59:32;8.30;;;8.10;;
7231;SDS011;3657;49.630;11.018;2023-05-07T11:02:08;9.00;;;8.70;;
7231;SDS011;3657;49.630;11.018;2023-05-07T11:04:36;8.03;;;7.73;;
7231;SDS011;3657;49.630;11.018;2023-05-07T11:10:03;7.17;;;6.97;;
7231;SDS011;3657;49.630;11.018;2023-05-07T11:12:48;7.90;;;7.60;;
7231;SDS011;3657;49.630;11.018;2023-05-07T11:18:09;7.37;;;7.17;;
7231;SDS011;3657;49.630;11.018;2023-05-07T11:20:47;7.43;;;7.23;;
7231;SDS011;3657;49.630;11.018;2023-05-07T11:28:53;7.43;;;7.23;;
7231;SDS011;3657;49.630;11.018;2023-05-07T11:31:22;7.47;;;7.07;;
7231;SDS011;3657;49.630;11.018;2023-05-07T11:33:52;6.03;;;5.83;;
7231;SDS011;3657;49.630;11.018;2023-05-07T11:36:21;7.33;;;7.13;;
7231;SDS011;3657;49.630;11.018;2023-05-07T11:38:49;6.77;;;6.50;;
7231;SDS011;3657;49.630;11.018;2023-05-07T11:41:16;10.07;;;9.77;;
7231;SDS011;3657;49.630;11.018;2023-05-07T11:43:54;9.07;;;8.57;;
7231;SDS011;3657;49.630;11.018;2023-05-07T11:46:22;7.03;;;6.83;;
7231;SDS011;3657;49.630;11.018;2023-05-07T11:48:48;7.70;;;7.50;;
7231;SDS011;3657;49.630;11.018;2023-05-07T11:51:19;7.87;;;7.67;;
7231;SDS011;3657;49.630;11.018;2023-05-07T11:53:47;7.67;;;7.27;;
7231;SDS011;3657;49.630;11.018;2023-05-07T11:56:15;6.30;;;6.10;;
7231;SDS011;3657;49.630;11.018;2023-05-07T11:58:43;6.00;;;5.90;;
7231;SDS011;3657;49.630;11.018;2023-05-07T12:01:12;6.50;;;6.30;;
7231;SDS011;3657;49.630;11.018;2023-05-07T12:03:40;6.57;;;6.37;;
7231;SDS011;3657;49.630;11.018;2023-05-07T12:06:08;7.10;;;6.90;;
7231;SDS011;3657;49.630;11.018;2023-05-07T12:08:37;6.40;;;6.10;;
7231;SDS011;3657;49.630;11.018;2023-05-07T12:11:08;6.57;;;6.37;;
7231;SDS011;3657;49.630;11.018;2023-05-07T12:13:36;6.57;;;6.27;;
7231;SDS011;3657;49.630;11.018;2023-05-07T12:16:03;7.37;;;7.07;;
7231;SDS011;3657;49.630;11.018;2023-05-07T12:18:32;6.63;;;6.43;;
7231;SDS011;3657;49.630;11.018;2023-05-07T12:21:00;6.40;;;6.20;;
7231;SDS011;3657;49.630;11.018;2023-05-07T12:23:27;6.73;;;6.53;;
7231;SDS011;3657;49.630;11.018;2023-05-07T12:25:56;6.30;;;6.10;;
7231;SDS011;3657;49.630;11.018;2023-05-07T12:28:23;5.97;;;5.87;;
7231;SDS011;3657;49.630;11.018;2023-05-07T12:30:50;6.70;;;6.50;;
7231;SDS011;3657;49.630;11.018;2023-05-07T12:33:17;6.50;;;6.30;;
7231;SDS011;3657;49.630;11.018;2023-05-07T12:35:47;6.83;;;6.63;;
7231;SDS011;3657;49.630;11.018;2023-05-07T12:38:14;5.47;;;5.17;;
7231;SDS011;3657;49.630;11.018;2023-05-07T12:40:42;5.93;;;5.63;;
7231;SDS011;3657;49.630;11.018;2023-05-07T12:43:16;5.97;;;5.77;;
7231;SDS011;3657;49.630;11.018;2023-05-07T12:45:44;6.63;;;6.43;;
7231;SDS011;3657;49.630;11.018;2023-05-07T12:48:12;6.50;;;6.30;;
7231;SDS011;3657;49.630;11.018;2023-05-07T12:50:39;6.60;;;6.37;;
7231;SDS011;3657;49.630;11.018;2023-05-07T12:53:06;6.30;;;6.10;;
7231;SDS011;3657;49.630;11.018;2023-05-07T12:55:42;6.23;;;5.93;;
7231;SDS011;3657;49.630;11.018;2023-05-07T12:58:14;5.90;;;5.70;;
7231;SDS011;3657;49.630;11.018;2023-05-07T13:00:47;5.63;;;5.43;;
7231;SDS011;3657;49.630;11.018;2023-05-07T13:03:22;6.23;;;6.00;;
7231;SDS011;3657;49.630;11.018;2023-05-07T13:05:49;7.00;;;6.80;;
7231;SDS011;3657;49.630;11.018;2023-05-07T13:08:23;5.97;;;5.87;;
7231;SDS011;3657;49.630;11.018;2023-05-07T13:10:51;6.43;;;6.23;;
7231;SDS011;3657;49.630;11.018;2023-05-07T13:13:19;6.00;;;5.80;;
7231;SDS011;3657;49.630;11.018;2023-05-07T13:15:46;6.27;;;6.17;;
7231;SDS011;3657;49.630;11.018;2023-05-07T13:18:12;6.43;;;6.13;;
7231;SDS011;3657;49.630;11.018;2023-05-07T13:20:39;5.57;;;5.47;;
7231;SDS011;3657;49.630;11.018;2023-05-07T13:23:06;5.43;;;5.33;;
7231;SDS011;3657;49.630;11.018;2023-05-07T13:25:33;5.47;;;5.37;;
7231;SDS011;3657;49.630;11.018;2023-05-07T13:28:00;5.40;;;5.30;;
7231;SDS011;3657;49.630;11.018;2023-05-07T13:30:29;6.70;;;6.50;;
7231;SDS011;3657;49.630;11.018;2023-05-07T13:32:55;5.57;;;5.37;;
7231;SDS011;3657;49.630;11.018;2023-05-07T13:35:22;6.50;;;6.20;;
7231;SDS011;3657;49.630;11.018;2023-05-07T13:37:49;5.60;;;5.40;;
7231;SDS011;3657;49.630;11.018;2023-05-07T13:40:17;5.80;;;5.70;;
7231;SDS011;3657;49.630;11.018;2023-05-07T13:42:44;5.00;;;4.90;;
7231;SDS011;3657;49.630;11.018;2023-05-07T13:45:10;5.10;;;5.00;;
7231;SDS011;3657;49.630;11.018;2023-05-07T13:47:40;4.97;;;4.77;;
7231;SDS011;3657;49.630;11.018;2023-05-07T13:50:07;4.30;;;4.20;;
7231;SDS011;3657;49.630;11.018;2023-05-07T13:52:35;4.10;;;3.90;;
7231;SDS011;3657;49.630;11.018;2023-05-07T13:55:01;4.63;;;4.43;;
7231;SDS011;3657;49.630;11.018;2023-05-07T13:57:28;4.73;;;4.63;;
7231;SDS011;3657;49.630;11.018;2023-05-07T13:59:55;4.80;;;4.70;;
7231;SDS011;3657;49.630;11.018;2023-05-07T14:02:21;4.60;;;4.40;;
7231;SDS011;3657;49.630;11.018;2023-05-07T14:04:49;4.33;;;4.23;;
7231;SDS011;3657;49.630;11.018;2023-05-07T14:07:16;4.10;;;4.00;;
7231;SDS011;3657;49.630;11.018;2023-05-07T14:09:43;4.70;;;4.60;;
7231;SDS011;3657;49.630;11.018;2023-05-07T14:12:10;4.47;;;4.37;;
7231;SDS011;3657;49.630;11.018;2023-05-07T14:14:37;4.13;;;4.03;;
7231;SDS011;3657;49.630;11.018;2023-05-07T14:17:03;4.43;;;4.33;;
7231;SDS011;3657;49.630;11.018;2023-05-07T14:19:30;4.30;;;4.20;;
7231;SDS011;3657;49.630;11.018;2023-05-07T14:21:58;4.40;;;4.30;;
7231;SDS011;3657;49.630;11.018;2023-05-07T14:24:25;4.87;;;4.67;;
7231;SDS011;3657;49.630;11.018;2023-05-07T14:26:51;4.53;;;4.43;;
7231;SDS011;3657;49.630;11.018;2023-05-07T14:29:18;4.43;;;4.33;;
7231;SDS011;3657;49.630;11.018;2023-05-07T14:31:45;4.60;;;4.50;;
7231;SDS011;3657;49.630;11.018;2023-05-07T14:34:11;5.00;;;4.90;;
7231;SDS011;3657;49.630;11.018;2023-05-07T14:36:38;5.13;;;4.93;;
7231;SDS011;3657;49.630;11.018;2023-05-07T14:39:06;5.57;;;5.37;;
7231;SDS011;3657;49.630;11.018;2023-05-07T14:41:33;5.30;;;5.20;;
7231;SDS011;3657;49.630;11.018;2023-05-07T14:43:59;5.77;;;5.50;;
7231;SDS011;3657;49.630;11.018;2023-05-07T14:46:28;6.50;;;6.20;;
7231;SDS011;3657;49.630;11.018;2023-05-07T14:48:55;6.57;;;6.37;;
7231;SDS011;3657;49.630;11.018;2023-05-07T14:51:22;6.67;;;6.47;;
7231;SDS011;3657;49.630;11.018;2023-05-07T14:53:50;5.67;;;5.47;;
7231;SDS011;3657;49.630;11.018;2023-05-07T14:56:18;6.23;;;6.03;;
7231;SDS011;3657;49.630;11.018;2023-05-07T14:58:46;6.30;;;6.10;;
7231;SDS011;3657;49.630;11.018;2023-05-07T15:01:13;6.77;;;6.57;;
7231;SDS011;3657;49.630;11.018;2023-05-07T15:03:40;5.97;;;5.77;;
7231;SDS011;3657;49.630;11.018;2023-05-07T15:06:06;6.03;;;5.83;;
7231;SDS011;3657;49.630;11.018;2023-05-07T15:08:33;5.50;;;5.40;;
7231;SDS011;3657;49.630;11.018;2023-05-07T15:11:00;5.23;;;5.13;;
7231;SDS011;3657;49.630;11.018;2023-05-07T15:13:28;5.23;;;5.13;;